createdAt,value
2023-10-06T00:02:32.941Z,100393.03
2023-10-06T00:05:03.703Z,100393.00
2023-10-06T00:07:33.989Z,100390.75
2023-10-06T00:10:03.867Z,100395.97
2023-10-06T00:12:34.078Z,100396.09
2023-10-06T00:15:10.105Z,100395.44
2023-10-06T00:17:41.838Z,100412.34
2023-10-06T00:20:22.860Z,100400.38
2023-10-06T00:22:56.446Z,100402.34
2023-10-06T00:25:26.836Z,100403.09
2023-10-06T00:27:57.207Z,100403.31
2023-10-06T00:30:27.883Z,100391.34
2023-10-06T00:32:59.290Z,100402.41
2023-10-06T00:35:33.385Z,100408.66
2023-10-06T00:38:18.881Z,100408.44
2023-10-06T00:40:57.574Z,100398.34
2023-10-06T00:43:39.005Z,100394.75
2023-10-06T00:46:10.104Z,100397.59
2023-10-06T00:48:54.966Z,100398.09
2023-10-06T00:51:30.442Z,100407.22
2023-10-06T00:54:06.797Z,100389.44
2023-10-06T00:56:37.360Z,100397.63
2023-10-06T00:59:08.404Z,100389.28
2023-10-06T01:01:38.890Z,100400.28
2023-10-06T01:04:10.178Z,100402.16
2023-10-06T01:06:45.399Z,100405.56
2023-10-06T01:09:19.142Z,100410.13
2023-10-06T01:11:57.859Z,100407.13
2023-10-06T01:14:29.001Z,100416.94
2023-10-06T01:17:19.772Z,100418.06
2023-10-06T01:19:50.641Z,100402.56
2023-10-06T01:22:35.050Z,100420.84
2023-10-06T01:25:13.195Z,100424.56
2023-10-06T01:27:46.244Z,100416.97
2023-10-06T01:30:23.090Z,100417.88
2023-10-06T01:32:53.785Z,100421.03
2023-10-06T01:35:26.489Z,100415.03
2023-10-06T01:38:07.975Z,100422.47
2023-10-06T01:40:45.824Z,100414.09
2023-10-06T01:43:19.296Z,100410.53
2023-10-06T01:45:49.544Z,100415.09
2023-10-06T01:48:23.416Z,100417.00
2023-10-06T01:50:56.806Z,100419.91
2023-10-06T01:53:34.865Z,100409.63
2023-10-06T01:56:09.630Z,100401.47
2023-10-06T01:58:42.009Z,100397.69
2023-10-06T02:01:12.091Z,100395.25
2023-10-06T02:03:42.484Z,100389.78
2023-10-06T02:06:18.190Z,100387.88
2023-10-06T02:08:57.069Z,100385.72
2023-10-06T02:11:33.252Z,100378.75
2023-10-06T02:14:07.129Z,100368.16
2023-10-06T02:16:37.602Z,100374.66
2023-10-06T02:19:27.781Z,100374.38
2023-10-06T02:21:58.080Z,100361.66
2023-10-06T02:24:28.184Z,100364.34
2023-10-06T02:27:05.137Z,100368.44
2023-10-06T02:29:35.114Z,100365.13
2023-10-06T02:32:11.262Z,100359.88
2023-10-06T02:34:41.727Z,100354.38
2023-10-06T02:37:12.614Z,100350.78
2023-10-06T02:39:45.917Z,100342.84
2023-10-06T02:42:21.632Z,100351.75
2023-10-06T02:44:53.863Z,100343.56
2023-10-06T02:47:24.179Z,100340.72
2023-10-06T02:50:01.920Z,100338.78
2023-10-06T02:52:32.520Z,100329.59
2023-10-06T02:55:12.410Z,100324.81
2023-10-06T02:57:53.086Z,100327.00
2023-10-06T03:00:25.787Z,100331.09
2023-10-06T03:03:19.815Z,100331.09
2023-10-06T03:05:53.769Z,100327.00
2023-10-06T03:08:25.977Z,100330.13
2023-10-06T03:10:56.524Z,100321.75
2023-10-06T03:13:35.980Z,100323.44
2023-10-06T03:16:12.823Z,100321.50
2023-10-06T03:18:43.429Z,100311.66
2023-10-06T03:21:18.316Z,100310.69
2023-10-06T03:23:58.600Z,100296.06
2023-10-06T03:26:36.211Z,100286.72
2023-10-06T03:29:13.603Z,100300.66
2023-10-06T03:31:49.479Z,100283.94
2023-10-06T03:34:25.676Z,100279.38
2023-10-06T03:36:55.794Z,100271.28
2023-10-06T03:39:33.974Z,100277.47
2023-10-06T03:42:08.679Z,100268.41
2023-10-06T03:44:39.030Z,100266.25
2023-10-06T03:47:11.274Z,100270.34
2023-10-06T03:49:42.712Z,100265.31
2023-10-06T03:52:12.895Z,100261.47
2023-10-06T03:54:44.100Z,100266.97
2023-10-06T03:57:17.694Z,100261.25
2023-10-06T03:59:48.218Z,100263.88
2023-10-06T04:02:18.297Z,100262.88
2023-10-06T04:04:52.042Z,100262.66
2023-10-06T04:07:22.373Z,100263.16
2023-10-06T04:09:52.910Z,100254.31
2023-10-06T04:12:26.237Z,100267.97
2023-10-06T04:14:56.689Z,100267.22
2023-10-06T04:17:26.699Z,100262.41
2023-10-06T04:19:56.988Z,100272.94
2023-10-06T04:22:27.108Z,100265.78
2023-10-06T04:24:57.372Z,100262.19
2023-10-06T04:27:28.536Z,100265.56
2023-10-06T04:29:58.838Z,100266.78
2023-10-06T04:32:30.172Z,100267.22
2023-10-06T04:35:02.919Z,100266.00
2023-10-06T04:37:33.037Z,100268.16
2023-10-06T04:40:03.263Z,100268.88
2023-10-06T04:42:33.986Z,100261.50
2023-10-06T04:45:09.095Z,100251.66
2023-10-06T04:47:42.768Z,100249.53
2023-10-06T04:50:18.184Z,100243.56
2023-10-06T04:52:49.390Z,100230.66
2023-10-06T04:55:21.607Z,100240.22
2023-10-06T04:57:51.916Z,100246.94
2023-10-06T05:00:22.607Z,100247.34
2023-10-06T05:02:55.674Z,100242.72
2023-10-06T05:05:27.466Z,100242.66
2023-10-06T05:07:57.654Z,100235.25
2023-10-06T05:10:28.750Z,100230.94
2023-10-06T05:12:59.250Z,100228.56
2023-10-06T05:15:29.648Z,100232.78
2023-10-06T05:18:01.189Z,100240.22
2023-10-06T05:20:33.846Z,100246.47
2023-10-06T05:23:09.612Z,100240.34
2023-10-06T05:25:40.890Z,100231.94
2023-10-06T05:28:13.884Z,100228.34
2023-10-06T05:30:44.825Z,100236.84
2023-10-06T05:33:16.593Z,100242.38
2023-10-06T05:35:48.666Z,100239.72
2023-10-06T05:38:18.847Z,100243.16
2023-10-06T05:40:50.583Z,100243.25
2023-10-06T05:43:20.742Z,100257.91
2023-10-06T05:45:54.236Z,100250.47
2023-10-06T05:48:24.795Z,100249.06
2023-10-06T05:50:58.955Z,100251.94
2023-10-06T05:53:32.839Z,100259.09
2023-10-06T05:56:05.375Z,100263.88
2023-10-06T05:58:36.833Z,100261.00
2023-10-06T06:01:13.260Z,100255.19
2023-10-06T06:03:48.365Z,100246.41
2023-10-06T06:06:24.771Z,100243.53
2023-10-06T06:08:55.079Z,100248.78
2023-10-06T06:11:25.565Z,100242.78
2023-10-06T06:14:15.259Z,100239.94
2023-10-06T06:16:47.614Z,100237.09
2023-10-06T06:19:17.808Z,100235.41
2023-10-06T06:21:48.205Z,100228.97
2023-10-06T06:24:24.481Z,100227.28
2023-10-06T06:26:54.799Z,100233.03
2023-10-06T06:29:25.428Z,100222.94
2023-10-06T06:31:57.425Z,100233.66
2023-10-06T06:34:27.507Z,100225.81
2023-10-06T06:36:57.748Z,100227.69
2023-10-06T06:39:29.860Z,100231.19
2023-10-06T06:42:00.128Z,100234.00
2023-10-06T06:44:32.245Z,100240.13
2023-10-06T06:47:03.020Z,100244.31
2023-10-06T06:49:33.389Z,100255.56
2023-10-06T06:52:03.729Z,100258.44
2023-10-06T06:54:39.112Z,100264.91
2023-10-06T06:57:12.025Z,100255.75
2023-10-06T06:59:45.320Z,100262.94
2023-10-06T07:02:16.848Z,100263.16
2023-10-06T07:04:47.020Z,100267.47
2023-10-06T07:07:17.787Z,100269.16
2023-10-06T07:09:49.010Z,100274.41
2023-10-06T07:12:20.712Z,100278.06
2023-10-06T07:14:51.320Z,100279.75
2023-10-06T07:17:21.694Z,100273.31
2023-10-06T07:19:51.755Z,100270.44
2023-10-06T07:22:28.947Z,100262.78
2023-10-06T07:24:59.157Z,100265.66
2023-10-06T07:27:35.156Z,100266.13
2023-10-06T07:30:07.161Z,100271.63
2023-10-06T07:32:37.633Z,100273.72
2023-10-06T07:35:08.294Z,100277.50
2023-10-06T07:37:38.706Z,100288.75
2023-10-06T07:40:15.395Z,100293.72
2023-10-06T07:42:46.977Z,100304.91
2023-10-06T07:45:17.452Z,100304.16
2023-10-06T07:47:48.213Z,100298.34
2023-10-06T07:50:18.901Z,100295.19
2023-10-06T07:52:50.217Z,100294.25
2023-10-06T07:55:23.704Z,100304.75
2023-10-06T07:57:54.436Z,100303.75
2023-10-06T08:00:32.135Z,100300.81
2023-10-06T08:03:05.840Z,100303.47
2023-10-06T08:05:36.036Z,100294.31
2023-10-06T08:08:06.704Z,100298.13
2023-10-06T08:10:36.736Z,100310.06
2023-10-06T08:13:07.041Z,100308.91
2023-10-06T08:15:40.905Z,100319.91
2023-10-06T08:18:12.038Z,100312.44
2023-10-06T08:20:42.630Z,100305.69
2023-10-06T08:23:14.205Z,100302.88
2023-10-06T08:25:57.409Z,100315.44
2023-10-06T08:28:33.557Z,100323.53
2023-10-06T08:31:06.262Z,100330.72
2023-10-06T08:33:38.303Z,100331.00
2023-10-06T08:36:10.789Z,100321.19
2023-10-06T08:38:40.778Z,100346.38
2023-10-06T08:41:11.756Z,100348.03
2023-10-06T08:43:42.853Z,100337.53
2023-10-06T08:46:17.584Z,100351.72
2023-10-06T08:48:49.094Z,100345.97
2023-10-06T08:51:23.174Z,100344.41
2023-10-06T08:53:58.021Z,100344.13
2023-10-06T08:56:27.988Z,100350.56
2023-10-06T08:58:58.256Z,100362.31
2023-10-06T09:01:31.303Z,100374.75
2023-10-06T09:04:06.817Z,100368.50
2023-10-06T09:06:38.255Z,100373.03
2023-10-06T09:09:08.509Z,100377.84
2023-10-06T09:11:42.463Z,100389.34
2023-10-06T09:14:15.552Z,100387.19
2023-10-06T09:16:53.279Z,100391.03
2023-10-06T09:19:23.556Z,100394.91
2023-10-06T09:22:09.782Z,100409.03
2023-10-06T09:24:41.382Z,100414.03
2023-10-06T09:27:24.030Z,100416.44
2023-10-06T09:30:13.094Z,100417.59
2023-10-06T09:32:43.158Z,100418.97
2023-10-06T09:35:24.467Z,100417.09
2023-10-06T09:37:59.370Z,100418.91
2023-10-06T09:40:34.422Z,100419.72
2023-10-06T09:43:07.884Z,100423.19
2023-10-06T09:45:39.701Z,100425.06
2023-10-06T09:48:17.889Z,100434.72
2023-10-06T09:50:49.054Z,100435.50
2023-10-06T09:53:22.021Z,100444.34
2023-10-06T09:55:54.350Z,100444.19
2023-10-06T09:58:25.307Z,100436.88
2023-10-06T10:00:57.082Z,100433.75
2023-10-06T10:03:27.549Z,100455.47
2023-10-06T10:06:03.196Z,100457.16
2023-10-06T10:08:35.377Z,100462.38
2023-10-06T10:11:31.836Z,100473.81
2023-10-06T10:14:36.436Z,100465.00
2023-10-06T10:17:36.947Z,100459.19
2023-10-06T10:20:11.717Z,100465.81
2023-10-06T10:22:45.357Z,100468.75
2023-10-06T10:28:20.697Z,100478.44
2023-10-06T10:30:52.585Z,100481.88
2023-10-06T10:33:27.150Z,100483.72
2023-10-06T10:36:17.105Z,100484.44
2023-10-06T10:38:48.011Z,100481.22
2023-10-06T10:41:20.325Z,100476.34
2023-10-06T10:43:51.095Z,100474.31
2023-10-06T10:46:41.480Z,100473.00
2023-10-06T10:49:15.874Z,100470.25
2023-10-06T10:51:59.769Z,100466.91
2023-10-06T10:54:33.704Z,100467.25
2023-10-06T10:57:13.688Z,100471.09
2023-10-06T11:00:06.826Z,100480.94
2023-10-06T11:02:49.483Z,100489.50
2023-10-06T11:05:24.329Z,100490.88
2023-10-06T11:08:00.853Z,100493.00
2023-10-06T11:10:35.138Z,100487.78
2023-10-06T11:13:48.200Z,100500.66
2023-10-06T11:16:25.598Z,100504.66
2023-10-06T11:18:55.740Z,100511.31
2023-10-06T11:21:29.463Z,100509.56
2023-10-06T11:24:00.860Z,100513.06
2023-10-06T11:26:34.052Z,100526.28
2023-10-06T11:29:04.130Z,100517.22
2023-10-06T11:31:34.596Z,100517.25
2023-10-06T11:34:05.602Z,100522.00
2023-10-06T11:36:35.937Z,100517.03
2023-10-06T11:39:06.213Z,100506.06
2023-10-06T11:41:36.663Z,100500.25
2023-10-06T11:44:10.038Z,100502.75
2023-10-06T11:46:54.062Z,100516.97
2023-10-06T11:49:25.500Z,100527.16
2023-10-06T11:51:55.926Z,100505.59
2023-10-06T11:54:28.095Z,100482.31
2023-10-06T11:56:59.410Z,100490.69
2023-10-06T11:59:30.743Z,100499.03
2023-10-06T12:02:11.519Z,100507.41
2023-10-06T12:04:41.629Z,100501.88
2023-10-06T12:07:27.039Z,100505.59
2023-10-06T12:10:07.529Z,100488.47
2023-10-06T12:12:38.457Z,100473.31
2023-10-06T12:15:09.295Z,100472.28
2023-10-06T12:17:40.837Z,100483.53
2023-10-06T12:20:16.060Z,100485.47
2023-10-06T12:22:47.489Z,100456.06
2023-10-06T12:25:18.625Z,100459.81
2023-10-06T12:27:49.370Z,100467.91
2023-10-06T12:30:20.487Z,100481.03
2023-10-06T12:32:51.027Z,100473.72
2023-10-06T12:35:21.123Z,100468.16
2023-10-06T12:37:54.708Z,100452.69
2023-10-06T12:40:25.042Z,100437.75
2023-10-06T12:42:55.310Z,100449.56
2023-10-06T12:45:25.642Z,100457.09
2023-10-06T12:47:55.885Z,100448.38
2023-10-06T12:50:26.315Z,100446.88
2023-10-06T12:52:57.618Z,100423.91
2023-10-06T12:55:29.702Z,100426.22
2023-10-06T12:58:00.049Z,100445.59
2023-10-06T13:00:30.755Z,100450.25
2023-10-06T13:03:01.412Z,100449.25
2023-10-06T13:05:31.714Z,100444.84
2023-10-06T13:08:03.307Z,100449.84
2023-10-06T13:10:33.368Z,100430.09
2023-10-06T13:13:08.573Z,100425.81
2023-10-06T13:15:38.596Z,100430.44
2023-10-06T13:18:11.516Z,100438.47
2023-10-06T13:20:42.982Z,100446.16
2023-10-06T13:23:13.404Z,100450.09
2023-10-06T13:25:44.432Z,100444.13
2023-10-06T13:28:19.342Z,100430.75
2023-10-06T13:30:49.552Z,100439.31
2023-10-06T13:33:20.499Z,100440.41
2023-10-06T13:35:50.948Z,100420.81
2023-10-06T13:38:21.595Z,100420.19
2023-10-06T13:40:52.704Z,100417.38
2023-10-06T13:43:23.223Z,100413.16
2023-10-06T13:45:53.372Z,100418.22
2023-10-06T13:48:28.242Z,100413.84
2023-10-06T13:51:01.517Z,100391.19
2023-10-06T13:53:32.363Z,100382.91
2023-10-06T13:56:02.521Z,100382.38
2023-10-06T13:58:32.861Z,100365.66
2023-10-06T14:01:04.125Z,100363.28
2023-10-06T14:03:34.961Z,100360.44
2023-10-06T14:06:05.883Z,100359.28
2023-10-06T14:08:36.326Z,100364.88
2023-10-06T14:11:06.808Z,100356.09
2023-10-06T14:13:37.073Z,100368.00
2023-10-06T14:16:07.234Z,100377.22
2023-10-06T14:18:41.279Z,100381.19
2023-10-06T14:21:13.865Z,100382.25
2023-10-06T14:23:49.321Z,100389.44
2023-10-06T14:26:21.503Z,100378.03
2023-10-06T14:28:52.634Z,100382.44
2023-10-06T14:31:31.843Z,100380.75
2023-10-06T14:34:20.424Z,100375.03
2023-10-06T14:36:59.595Z,100348.53
2023-10-06T14:39:48.141Z,100337.97
2023-10-06T14:42:36.360Z,100350.19
2023-10-06T14:45:25.503Z,100349.69
2023-10-06T14:47:55.770Z,100341.16
2023-10-06T14:50:26.716Z,100346.19
2023-10-06T14:52:59.412Z,100347.84
2023-10-06T14:55:35.101Z,100346.50
2023-10-06T14:58:07.336Z,100333.75
2023-10-06T15:00:37.601Z,100339.47
2023-10-06T15:03:10.571Z,100339.38
2023-10-06T15:05:40.868Z,100330.88
2023-10-06T15:08:14.626Z,100336.75
2023-10-06T15:10:45.589Z,100336.28
2023-10-06T15:13:21.047Z,100346.63
2023-10-06T15:15:52.303Z,100356.41
2023-10-06T15:18:24.242Z,100351.50
2023-10-06T15:20:54.566Z,100339.03
2023-10-06T15:23:24.759Z,100320.19
2023-10-06T15:25:58.803Z,100304.66
2023-10-06T15:28:38.833Z,100318.59
2023-10-06T15:31:14.244Z,100314.84
2023-10-06T15:33:48.732Z,100310.50
2023-10-06T15:36:19.269Z,100316.03
2023-10-06T15:38:49.410Z,100316.59
2023-10-06T15:41:19.876Z,100316.06
2023-10-06T15:43:50.120Z,100320.44
2023-10-06T15:46:22.177Z,100312.53
2023-10-06T15:48:57.740Z,100314.53
2023-10-06T15:51:27.987Z,100311.88
2023-10-06T15:53:58.152Z,100320.22
2023-10-06T15:56:28.461Z,100324.03
2023-10-06T15:58:58.383Z,100318.31
2023-10-06T16:01:29.121Z,100292.16
2023-10-06T16:04:00.393Z,100277.94
2023-10-06T16:06:34.347Z,100277.38
2023-10-06T16:09:10.612Z,100287.13
2023-10-06T16:11:44.732Z,100279.97
2023-10-06T16:14:17.951Z,100284.91
2023-10-06T16:16:51.257Z,100273.69
2023-10-06T16:19:21.556Z,100266.13
2023-10-06T16:21:53.749Z,100270.34
2023-10-06T16:24:23.825Z,100279.88
2023-10-06T16:26:54.163Z,100274.34
2023-10-06T16:29:25.135Z,100266.78
2023-10-06T16:31:55.647Z,100267.31
2023-10-06T16:34:25.668Z,100254.75
2023-10-06T16:36:56.017Z,100242.00
2023-10-06T16:39:28.092Z,100241.56
2023-10-06T16:41:58.419Z,100248.31
2023-10-06T16:44:28.395Z,100239.22
2023-10-06T16:46:58.644Z,100240.88
2023-10-06T16:49:30.349Z,100236.34
2023-10-06T16:52:01.355Z,100217.91
2023-10-06T16:54:33.858Z,100199.88
2023-10-06T16:57:05.075Z,100213.03
2023-10-06T16:59:37.671Z,100215.53
2023-10-06T17:02:09.074Z,100190.59
2023-10-06T17:04:41.203Z,100187.50
2023-10-06T17:07:12.508Z,100175.88
2023-10-06T17:09:43.538Z,100184.91
2023-10-06T17:12:13.927Z,100201.06
2023-10-06T17:14:44.167Z,100200.00
2023-10-06T17:17:15.297Z,100202.09
2023-10-06T17:19:45.961Z,100205.31
2023-10-06T17:22:16.481Z,100203.22
2023-10-06T17:24:47.494Z,100194.16
2023-10-06T17:27:17.830Z,100176.69
2023-10-06T17:29:48.592Z,100164.19
2023-10-06T17:32:19.007Z,100164.00
2023-10-06T17:34:49.067Z,100166.75
2023-10-06T17:37:30.753Z,100158.72
2023-10-06T17:40:01.430Z,100164.03
2023-10-06T17:42:32.102Z,100154.38
2023-10-06T17:45:06.427Z,100158.19
2023-10-06T17:47:37.380Z,100162.78
2023-10-06T17:50:15.102Z,100172.28
2023-10-06T17:52:48.304Z,100163.69
2023-10-06T17:55:18.646Z,100151.66
2023-10-06T17:57:51.353Z,100151.63
2023-10-06T18:00:21.643Z,100140.69
2023-10-06T18:02:57.496Z,100133.47
2023-10-06T18:05:28.368Z,100125.25
2023-10-06T18:07:58.661Z,100128.59
2023-10-06T18:10:31.604Z,100132.25
2023-10-06T18:13:01.997Z,100142.19
2023-10-06T18:15:31.969Z,100136.22
2023-10-06T18:18:02.403Z,100131.16
2023-10-06T18:20:39.484Z,100139.69
2023-10-06T18:23:10.652Z,100144.81
2023-10-06T18:25:47.394Z,100131.34
2023-10-06T18:28:22.523Z,100118.19
2023-10-06T18:30:59.070Z,100129.88
2023-10-06T18:33:31.056Z,100114.69
2023-10-06T18:36:02.178Z,100111.16
2023-10-06T18:38:32.402Z,100104.88
2023-10-06T18:41:07.300Z,100098.44
2023-10-06T18:43:37.947Z,100090.53
2023-10-06T18:46:11.988Z,100096.84
2023-10-06T18:48:44.635Z,100097.59
2023-10-06T18:51:15.879Z,100081.66
2023-10-06T18:53:50.291Z,100078.56
2023-10-06T18:56:20.376Z,100084.59
2023-10-06T18:58:53.389Z,100086.78
2023-10-06T19:01:24.268Z,100077.44
2023-10-06T19:03:54.416Z,100068.78
2023-10-06T19:06:27.072Z,100068.13
2023-10-06T19:08:57.219Z,100079.06
2023-10-06T19:11:28.814Z,100098.16
2023-10-06T19:13:58.715Z,100118.75
2023-10-06T19:16:29.287Z,100127.50
2023-10-06T19:19:00.605Z,100142.81
2023-10-06T19:21:31.040Z,100156.34
2023-10-06T19:24:05.647Z,100177.41
2023-10-06T19:26:50.045Z,100183.72
2023-10-06T19:29:24.629Z,100163.00
2023-10-06T19:32:16.830Z,100122.75
2023-10-06T19:34:47.323Z,100118.25
2023-10-06T19:37:22.348Z,100128.28
2023-10-06T19:39:58.658Z,100111.06
2023-10-06T19:42:33.984Z,100100.19
2023-10-06T19:45:04.974Z,100066.28
2023-10-06T19:47:36.186Z,100048.66
2023-10-06T19:50:14.294Z,100048.59
2023-10-06T19:52:45.543Z,100076.16
2023-10-06T19:55:16.168Z,100096.91
2023-10-06T19:57:47.103Z,100104.53
2023-10-06T20:00:28.434Z,100124.06
2023-10-06T20:02:59.560Z,100165.84
2023-10-06T20:05:30.031Z,100204.72
2023-10-06T20:08:02.502Z,100231.03
2023-10-06T20:10:33.063Z,100247.66
2023-10-06T20:13:05.295Z,100218.59
2023-10-06T20:15:37.565Z,100154.22
2023-10-06T20:18:08.989Z,100091.47
2023-10-06T20:20:41.071Z,100080.78
2023-10-06T20:23:12.030Z,100091.22
2023-10-06T20:25:43.463Z,100120.50
2023-10-06T20:28:15.752Z,100151.78
2023-10-06T20:30:46.206Z,100171.16
2023-10-06T20:33:17.379Z,100203.63
2023-10-06T20:35:47.917Z,100231.47
2023-10-06T20:38:19.222Z,100240.97
2023-10-06T20:40:49.853Z,100249.91
2023-10-06T20:43:21.464Z,100262.84
2023-10-06T20:45:52.157Z,100252.66
2023-10-06T20:48:23.445Z,100205.88
2023-10-06T20:50:53.956Z,100159.31
2023-10-06T20:53:25.776Z,100148.84
2023-10-06T20:56:06.021Z,100151.84
2023-10-06T20:58:37.122Z,100161.47
2023-10-06T21:01:08.712Z,100159.38
2023-10-06T21:03:40.657Z,100150.81
2023-10-06T21:06:11.410Z,100115.16
2023-10-06T21:08:43.006Z,100081.22
2023-10-06T21:11:15.192Z,100057.41
2023-10-06T21:13:47.275Z,100077.50
2023-10-06T21:16:17.764Z,100110.81
2023-10-06T21:18:49.122Z,100127.91
2023-10-06T21:21:19.554Z,100156.16
2023-10-06T21:23:50.612Z,100181.13
2023-10-06T21:26:21.234Z,100225.66
2023-10-06T21:28:52.869Z,100246.88
2023-10-06T21:31:23.259Z,100284.78
2023-10-06T21:33:54.719Z,100287.28
2023-10-06T21:36:25.420Z,100240.63
2023-10-06T21:38:56.656Z,100196.78
2023-10-06T21:41:27.062Z,100220.78
2023-10-06T21:43:58.235Z,100223.38
2023-10-06T21:46:28.728Z,100211.84
2023-10-06T21:48:59.860Z,100204.00
2023-10-06T21:51:30.268Z,100163.53
2023-10-06T21:54:02.612Z,100181.63
2023-10-06T21:56:33.006Z,100171.34
2023-10-06T21:59:04.518Z,100179.34
2023-10-06T22:01:34.977Z,100166.59
2023-10-06T22:04:06.192Z,100166.28
2023-10-06T22:06:36.774Z,100210.53
2023-10-06T22:09:10.940Z,100245.72
2023-10-06T22:11:43.169Z,100232.88
2023-10-06T22:14:14.904Z,100231.66
2023-10-06T22:16:46.318Z,100265.44
2023-10-06T22:19:17.854Z,100288.22
2023-10-06T22:21:48.304Z,100260.47
2023-10-06T22:24:19.430Z,100223.53
2023-10-06T22:26:49.887Z,100126.94
2023-10-06T22:29:20.858Z,100099.75
2023-10-06T22:31:52.509Z,100122.00
2023-10-06T22:34:24.965Z,100098.22
2023-10-06T22:37:01.700Z,100099.09
2023-10-06T22:39:36.234Z,100112.13
2023-10-06T22:42:06.684Z,100116.75
2023-10-06T22:44:38.443Z,100135.03
2023-10-06T22:47:09.029Z,100163.16
2023-10-06T22:49:40.275Z,100174.06
2023-10-06T22:52:10.790Z,100145.63
2023-10-06T22:54:41.992Z,100137.28
2023-10-06T22:57:12.457Z,100148.44
2023-10-06T22:59:43.371Z,100213.50
2023-10-06T23:02:13.836Z,100254.34
2023-10-06T23:04:45.619Z,100245.84
2023-10-06T23:07:16.168Z,100263.41
2023-10-06T23:09:48.087Z,100280.00
2023-10-06T23:12:18.995Z,100295.09
2023-10-06T23:14:49.983Z,100251.53
2023-10-06T23:17:21.178Z,100349.34
2023-10-06T23:20:01.831Z,100417.69
2023-10-06T23:22:32.820Z,100452.41
2023-10-06T23:25:05.326Z,100499.38
2023-10-06T23:27:36.025Z,100480.16
2023-10-06T23:30:09.874Z,100449.88
2023-10-06T23:32:40.690Z,100481.06
2023-10-06T23:35:11.844Z,100509.19
2023-10-06T23:37:43.631Z,100500.78
2023-10-06T23:40:20.474Z,100420.53
2023-10-06T23:42:54.502Z,100358.44
2023-10-06T23:45:32.558Z,100341.38
2023-10-06T23:48:11.998Z,100338.91
2023-10-06T23:50:55.213Z,100324.88
2023-10-06T23:53:29.900Z,100290.56
2023-10-06T23:56:02.604Z,100316.00
2023-10-06T23:58:35.198Z,100295.88
